sensor_id;sensor_type;location;lat;lon;timestamp;noise_LAeq;noise_LA_min;noise_LA_max;noise_LA01;noise_LA95
64545;Laerm;50936;51.660;5.616;2023-05-07T00:00:41;56.85;43.29;70.28;;
64545;Laerm;50936;51.660;5.616;2023-05-07T00:03:09;53.18;42.65;65.34;;
64545;Laerm;50936;51.660;5.616;2023-05-07T00:05:36;49.87;41.75;64.34;;
64545;Laerm;50936;51.660;5.616;2023-05-07T00:08:04;49.39;42.22;61.78;;
64545;Laerm;50936;51.660;5.616;2023-05-07T00:10:31;49.83;41.30;66.93;;
64545;Laerm;50936;51.660;5.616;2023-05-07T00:12:57;49.99;40.89;64.70;;
64545;Laerm;50936;51.660;5.616;2023-05-07T00:15:24;49.44;41.38;61.75;;
64545;Laerm;50936;51.660;5.616;2023-05-07T00:17:51;53.44;41.61;71.19;;
64545;Laerm;50936;51.660;5.616;2023-05-07T00:20:18;43.00;40.98;51.80;;
64545;Laerm;50936;51.660;5.616;2023-05-07T00:22:45;51.70;41.46;66.28;;
64545;Laerm;50936;51.660;5.616;2023-05-07T00:25:12;53.03;41.46;68.76;;
64545;Laerm;50936;51.660;5.616;2023-05-07T00:27:39;56.08;41.68;71.70;;
64545;Laerm;50936;51.660;5.616;2023-05-07T00:30:07;55.19;41.68;69.10;;
64545;Laerm;50936;51.660;5.616;2023-05-07T00:32:35;50.28;41.38;66.10;;
64545;Laerm;50936;51.660;5.616;2023-05-07T00:35:04;55.44;41.53;68.77;;
64545;Laerm;50936;51.660;5.616;2023-05-07T00:37:31;55.60;41.30;70.66;;
64545;Laerm;50936;51.660;5.616;2023-05-07T00:39:58;53.06;42.03;69.48;;
64545;Laerm;50936;51.660;5.616;2023-05-07T00:42:26;54.43;41.46;69.35;;
64545;Laerm;50936;51.660;5.616;2023-05-07T00:44:52;54.44;41.89;67.24;;
64545;Laerm;50936;51.660;5.616;2023-05-07T00:47:20;52.69;41.38;66.82;;
64545;Laerm;50936;51.660;5.616;2023-05-07T00:49:46;54.32;41.14;66.33;;
64545;Laerm;50936;51.660;5.616;2023-05-07T00:52:16;54.52;41.82;70.53;;
64545;Laerm;50936;51.660;5.616;2023-05-07T00:54:44;50.42;41.22;65.62;;
64545;Laerm;50936;51.660;5.616;2023-05-07T00:57:11;50.08;41.22;64.96;;
64545;Laerm;50936;51.660;5.616;2023-05-07T00:59:39;50.78;41.22;64.39;;
64545;Laerm;50936;51.660;5.616;2023-05-07T01:02:07;49.97;41.53;63.25;;
64545;Laerm;50936;51.660;5.616;2023-05-07T01:04:34;46.64;40.98;57.46;;
64545;Laerm;50936;51.660;5.616;2023-05-07T01:07:02;53.86;41.22;69.83;;
64545;Laerm;50936;51.660;5.616;2023-05-07T01:09:30;51.53;41.22;69.88;;
64545;Laerm;50936;51.660;5.616;2023-05-07T01:11:58;53.28;41.46;66.68;;
64545;Laerm;50936;51.660;5.616;2023-05-07T01:14:26;48.62;40.89;63.16;;
64545;Laerm;50936;51.660;5.616;2023-05-07T01:16:54;50.12;41.75;70.01;;
64545;Laerm;50936;51.660;5.616;2023-05-07T01:19:23;52.41;40.80;67.16;;
64545;Laerm;50936;51.660;5.616;2023-05-07T01:21:51;49.13;40.98;62.21;;
64545;Laerm;50936;51.660;5.616;2023-05-07T01:24:23;52.71;41.22;68.79;;
64545;Laerm;50936;51.660;5.616;2023-05-07T01:26:50;56.81;41.82;70.98;;
64545;Laerm;50936;51.660;5.616;2023-05-07T01:29:18;43.02;40.53;50.28;;
64545;Laerm;50936;51.660;5.616;2023-05-07T01:31:47;48.49;41.14;63.07;;
64545;Laerm;50936;51.660;5.616;2023-05-07T01:34:19;43.23;40.98;49.32;;
64545;Laerm;50936;51.660;5.616;2023-05-07T01:36:47;53.93;40.80;68.99;;
64545;Laerm;50936;51.660;5.616;2023-05-07T01:39:16;50.51;41.14;72.37;;
64545;Laerm;50936;51.660;5.616;2023-05-07T01:41:43;48.83;40.89;65.06;;
64545;Laerm;50936;51.660;5.616;2023-05-07T01:44:13;54.89;40.71;72.58;;
64545;Laerm;50936;51.660;5.616;2023-05-07T01:46:41;53.38;41.38;72.81;;
64545;Laerm;50936;51.660;5.616;2023-05-07T01:49:08;48.69;40.89;64.92;;
64545;Laerm;50936;51.660;5.616;2023-05-07T01:51:36;53.49;41.53;68.44;;
64545;Laerm;50936;51.660;5.616;2023-05-07T01:54:03;49.71;41.06;69.23;;
64545;Laerm;50936;51.660;5.616;2023-05-07T01:56:31;53.93;40.89;67.50;;
64545;Laerm;50936;51.660;5.616;2023-05-07T01:58:58;53.08;41.30;65.74;;
64545;Laerm;50936;51.660;5.616;2023-05-07T02:01:25;52.33;40.96;68.74;;
64545;Laerm;50936;51.660;5.616;2023-05-07T02:03:52;49.98;41.22;62.43;;
64545;Laerm;50936;51.660;5.616;2023-05-07T02:06:24;52.34;40.98;68.05;;
64545;Laerm;50936;51.660;5.616;2023-05-07T02:08:55;52.23;41.06;68.37;;
64545;Laerm;50936;51.660;5.616;2023-05-07T02:11:22;54.00;41.75;67.66;;
64545;Laerm;50936;51.660;5.616;2023-05-07T02:13:49;48.06;41.38;61.68;;
64545;Laerm;50936;51.660;5.616;2023-05-07T02:16:16;45.81;41.22;59.41;;
64545;Laerm;50936;51.660;5.616;2023-05-07T02:18:43;60.30;41.06;83.42;;
64545;Laerm;50936;51.660;5.616;2023-05-07T02:21:10;52.46;40.62;77.72;;
64545;Laerm;50936;51.660;5.616;2023-05-07T02:23:37;54.11;41.38;70.70;;
64545;Laerm;50936;51.660;5.616;2023-05-07T02:26:04;50.13;41.14;63.59;;
64545;Laerm;50936;51.660;5.616;2023-05-07T02:28:31;48.87;41.14;63.10;;
64545;Laerm;50936;51.660;5.616;2023-05-07T02:31:04;55.84;41.14;76.70;;
64545;Laerm;50936;51.660;5.616;2023-05-07T02:33:32;51.02;41.30;69.50;;
64545;Laerm;50936;51.660;5.616;2023-05-07T02:36:09;55.75;41.30;82.88;;
64545;Laerm;50936;51.660;5.616;2023-05-07T02:38:45;42.81;41.06;50.70;;
64545;Laerm;50936;51.660;5.616;2023-05-07T02:41:12;50.06;41.38;67.33;;
64545;Laerm;50936;51.660;5.616;2023-05-07T02:43:39;51.14;41.38;67.37;;
64545;Laerm;50936;51.660;5.616;2023-05-07T02:46:08;42.89;40.89;55.53;;
64545;Laerm;50936;51.660;5.616;2023-05-07T02:48:39;44.20;41.46;63.83;;
64545;Laerm;50936;51.660;5.616;2023-05-07T02:51:06;50.12;41.38;74.39;;
64545;Laerm;50936;51.660;5.616;2023-05-07T02:53:35;44.48;41.22;53.99;;
64545;Laerm;50936;51.660;5.616;2023-05-07T02:56:02;43.62;41.30;51.00;;
64545;Laerm;50936;51.660;5.616;2023-05-07T02:58:29;47.46;41.38;60.81;;
64545;Laerm;50936;51.660;5.616;2023-05-07T03:00:57;43.23;41.22;52.02;;
64545;Laerm;50936;51.660;5.616;2023-05-07T03:03:34;45.21;41.61;56.89;;
64545;Laerm;50936;51.660;5.616;2023-05-07T03:06:02;50.66;41.22;62.59;;
64545;Laerm;50936;51.660;5.616;2023-05-07T03:08:29;47.63;41.68;63.72;;
64545;Laerm;50936;51.660;5.616;2023-05-07T03:10:56;52.07;43.04;68.99;;
64545;Laerm;50936;51.660;5.616;2023-05-07T03:13:23;44.32;41.53;53.57;;
64545;Laerm;50936;51.660;5.616;2023-05-07T03:15:51;44.95;41.61;54.79;;
64545;Laerm;50936;51.660;5.616;2023-05-07T03:18:18;43.58;41.46;53.04;;
64545;Laerm;50936;51.660;5.616;2023-05-07T03:20:46;49.87;41.53;68.60;;
64545;Laerm;50936;51.660;5.616;2023-05-07T03:23:13;57.60;41.89;79.30;;
64545;Laerm;50936;51.660;5.616;2023-05-07T03:25:40;45.47;41.68;62.01;;
64545;Laerm;50936;51.660;5.616;2023-05-07T03:28:06;52.16;41.96;69.00;;
64545;Laerm;50936;51.660;5.616;2023-05-07T03:30:48;44.55;41.46;67.32;;
64545;Laerm;50936;51.660;5.616;2023-05-07T03:33:15;44.75;41.41;50.69;;
64545;Laerm;50936;51.660;5.616;2023-05-07T03:35:42;45.03;41.68;52.86;;
64545;Laerm;50936;51.660;5.616;2023-05-07T03:38:09;43.56;41.53;49.82;;
64545;Laerm;50936;51.660;5.616;2023-05-07T03:40:37;52.81;41.82;66.63;;
64545;Laerm;50936;51.660;5.616;2023-05-07T03:43:05;51.26;41.46;63.96;;
64545;Laerm;50936;51.660;5.616;2023-05-07T03:45:35;44.83;41.22;54.24;;
64545;Laerm;50936;51.660;5.616;2023-05-07T03:48:12;46.30;41.14;57.19;;
64545;Laerm;50936;51.660;5.616;2023-05-07T03:50:39;48.09;41.53;61.78;;
64545;Laerm;50936;51.660;5.616;2023-05-07T03:53:06;55.08;41.75;73.29;;
64545;Laerm;50936;51.660;5.616;2023-05-07T03:55:37;45.16;41.61;57.73;;
64545;Laerm;50936;51.660;5.616;2023-05-07T03:58:05;50.64;41.55;64.96;;
64545;Laerm;50936;51.660;5.616;2023-05-07T04:00:32;43.85;41.75;58.81;;
64545;Laerm;50936;51.660;5.616;2023-05-07T04:03:12;46.53;41.68;59.36;;
64545;Laerm;50936;51.660;5.616;2023-05-07T04:05:39;46.51;41.68;58.76;;
64545;Laerm;50936;51.660;5.616;2023-05-07T04:08:06;44.50;41.46;63.57;;
64545;Laerm;50936;51.660;5.616;2023-05-07T04:10:46;49.82;41.53;65.86;;
64545;Laerm;50936;51.660;5.616;2023-05-07T04:13:13;46.05;41.22;56.79;;
64545;Laerm;50936;51.660;5.616;2023-05-07T04:15:41;45.44;41.81;52.38;;
64545;Laerm;50936;51.660;5.616;2023-05-07T04:18:10;52.10;41.89;67.58;;
64545;Laerm;50936;51.660;5.616;2023-05-07T04:20:38;44.69;41.53;60.43;;
64545;Laerm;50936;51.660;5.616;2023-05-07T04:23:10;43.70;41.38;51.02;;
64545;Laerm;50936;51.660;5.616;2023-05-07T04:25:37;50.91;41.46;62.80;;
64545;Laerm;50936;51.660;5.616;2023-05-07T04:28:11;50.26;41.68;64.64;;
64545;Laerm;50936;51.660;5.616;2023-05-07T04:30:40;50.38;41.46;64.27;;
64545;Laerm;50936;51.660;5.616;2023-05-07T04:33:08;51.40;41.38;66.21;;
64545;Laerm;50936;51.660;5.616;2023-05-07T04:35:36;43.14;41.14;51.12;;
64545;Laerm;50936;51.660;5.616;2023-05-07T04:38:04;55.34;41.30;68.58;;
64545;Laerm;50936;51.660;5.616;2023-05-07T04:40:31;51.88;41.82;69.00;;
64545;Laerm;50936;51.660;5.616;2023-05-07T04:43:00;54.93;41.75;68.81;;
64545;Laerm;50936;51.660;5.616;2023-05-07T04:45:31;46.44;41.53;58.77;;
64545;Laerm;50936;51.660;5.616;2023-05-07T04:47:58;45.41;41.61;63.75;;
64545;Laerm;50936;51.660;5.616;2023-05-07T04:50:26;55.73;41.38;70.07;;
64545;Laerm;50936;51.660;5.616;2023-05-07T04:52:57;56.28;42.65;69.37;;
64545;Laerm;50936;51.660;5.616;2023-05-07T04:55:24;52.70;41.68;66.82;;
64545;Laerm;50936;51.660;5.616;2023-05-07T04:57:52;51.32;41.61;66.44;;
64545;Laerm;50936;51.660;5.616;2023-05-07T05:00:20;52.67;41.75;72.70;;
64545;Laerm;50936;51.660;5.616;2023-05-07T05:02:48;47.30;41.68;63.60;;
64545;Laerm;50936;51.660;5.616;2023-05-07T05:05:19;59.80;41.89;75.49;;
64545;Laerm;50936;51.660;5.616;2023-05-07T05:07:48;51.37;41.96;72.38;;
64545;Laerm;50936;51.660;5.616;2023-05-07T05:10:15;54.18;41.89;74.66;;
64545;Laerm;50936;51.660;5.616;2023-05-07T05:12:43;50.87;41.89;64.59;;
64545;Laerm;50936;51.660;5.616;2023-05-07T05:15:12;55.27;42.59;68.48;;
64545;Laerm;50936;51.660;5.616;2023-05-07T05:17:39;56.82;42.29;76.77;;
64545;Laerm;50936;51.660;5.616;2023-05-07T05:20:07;49.78;41.96;62.57;;
64545;Laerm;50936;51.660;5.616;2023-05-07T05:22:38;51.15;41.68;64.77;;
64545;Laerm;50936;51.660;5.616;2023-05-07T05:25:06;54.89;41.53;70.02;;
64545;Laerm;50936;51.660;5.616;2023-05-07T05:27:33;45.16;41.68;52.80;;
64545;Laerm;50936;51.660;5.616;2023-05-07T05:30:00;52.42;42.16;68.67;;
64545;Laerm;50936;51.660;5.616;2023-05-07T05:32:30;48.58;41.46;62.84;;
64545;Laerm;50936;51.660;5.616;2023-05-07T05:34:57;47.35;41.46;61.11;;
64545;Laerm;50936;51.660;5.616;2023-05-07T05:37:25;44.24;41.53;53.27;;
64545;Laerm;50936;51.660;5.616;2023-05-07T05:39:52;46.37;41.68;58.88;;
64545;Laerm;50936;51.660;5.616;2023-05-07T05:42:21;49.20;41.82;67.00;;
64545;Laerm;50936;51.660;5.616;2023-05-07T05:44:49;51.20;41.68;66.28;;
64545;Laerm;50936;51.660;5.616;2023-05-07T05:47:15;50.27;42.82;65.99;;
64545;Laerm;50936;51.660;5.616;2023-05-07T05:49:43;45.80;41.53;57.91;;
64545;Laerm;50936;51.660;5.616;2023-05-07T05:52:14;55.57;43.63;70.93;;
64545;Laerm;50936;51.660;5.616;2023-05-07T05:54:41;52.99;41.61;66.40;;
64545;Laerm;50936;51.660;5.616;2023-05-07T05:57:08;53.95;41.61;69.77;;
64545;Laerm;50936;51.660;5.616;2023-05-07T05:59:35;47.30;41.68;57.99;;
64545;Laerm;50936;51.660;5.616;2023-05-07T06:02:02;48.84;41.53;61.80;;
64545;Laerm;50936;51.660;5.616;2023-05-07T06:04:29;55.24;42.53;68.38;;
64545;Laerm;50936;51.660;5.616;2023-05-07T06:06:57;53.08;41.30;66.89;;
64545;Laerm;50936;51.660;5.616;2023-05-07T06:09:25;55.06;40.80;67.22;;
64545;Laerm;50936;51.660;5.616;2023-05-07T06:11:52;46.85;41.82;61.06;;
64545;Laerm;50936;51.660;5.616;2023-05-07T06:14:19;49.83;41.46;64.56;;
64545;Laerm;50936;51.660;5.616;2023-05-07T06:16:46;53.13;42.16;65.31;;
64545;Laerm;50936;51.660;5.616;2023-05-07T06:19:13;50.44;40.89;64.48;;
64545;Laerm;50936;51.660;5.616;2023-05-07T06:21:41;49.33;41.53;63.72;;
64545;Laerm;50936;51.660;5.616;2023-05-07T06:24:08;50.55;41.30;66.18;;
64545;Laerm;50936;51.660;5.616;2023-05-07T06:26:37;54.44;41.96;70.54;;
64545;Laerm;50936;51.660;5.616;2023-05-07T06:29:03;55.38;42.29;76.82;;
64545;Laerm;50936;51.660;5.616;2023-05-07T06:31:30;51.88;42.09;66.04;;
64545;Laerm;50936;51.660;5.616;2023-05-07T06:34:02;59.28;41.82;77.13;;
64545;Laerm;50936;51.660;5.616;2023-05-07T06:36:34;53.17;42.59;64.62;;
64545;Laerm;50936;51.660;5.616;2023-05-07T06:39:10;55.64;42.98;67.45;;
64545;Laerm;50936;51.660;5.616;2023-05-07T06:41:37;54.19;42.88;67.03;;
64545;Laerm;50936;51.660;5.616;2023-05-07T06:44:08;54.23;42.22;69.19;;
64545;Laerm;50936;51.660;5.616;2023-05-07T06:46:50;54.93;41.38;69.01;;
64545;Laerm;50936;51.660;5.616;2023-05-07T06:49:17;53.32;42.41;67.68;;
64545;Laerm;50936;51.660;5.616;2023-05-07T06:51:44;59.46;44.94;72.75;;
64545;Laerm;50936;51.660;5.616;2023-05-07T06:54:12;56.97;41.89;70.98;;
64545;Laerm;50936;51.660;5.616;2023-05-07T06:56:40;58.98;43.14;73.18;;
64545;Laerm;50936;51.660;5.616;2023-05-07T06:59:09;54.28;43.44;65.43;;
64545;Laerm;50936;51.660;5.616;2023-05-07T07:01:39;59.03;44.58;69.75;;
64545;Laerm;50936;51.660;5.616;2023-05-07T07:04:07;53.34;42.98;64.25;;
64545;Laerm;50936;51.660;5.616;2023-05-07T07:06:34;57.06;44.65;66.45;;
64545;Laerm;50936;51.660;5.616;2023-05-07T07:09:05;55.85;42.82;68.21;;
64545;Laerm;50936;51.660;5.616;2023-05-07T07:11:32;57.08;44.62;68.13;;
64545;Laerm;50936;51.660;5.616;2023-05-07T07:13:59;56.44;42.93;68.38;;
64545;Laerm;50936;51.660;5.616;2023-05-07T07:16:28;57.50;43.54;70.07;;
64545;Laerm;50936;51.660;5.616;2023-05-07T07:18:56;53.22;42.59;69.38;;
64545;Laerm;50936;51.660;5.616;2023-05-07T07:21:22;59.65;43.72;76.45;;
64545;Laerm;50936;51.660;5.616;2023-05-07T07:23:50;58.33;45.25;76.27;;
64545;Laerm;50936;51.660;5.616;2023-05-07T07:26:19;58.76;43.90;67.83;;
64545;Laerm;50936;51.660;5.616;2023-05-07T07:28:46;59.65;45.45;70.99;;
64545;Laerm;50936;51.660;5.616;2023-05-07T07:31:16;57.39;45.20;67.29;;
64545;Laerm;50936;51.660;5.616;2023-05-07T07:33:44;56.39;43.44;70.65;;
64545;Laerm;50936;51.660;5.616;2023-05-07T07:36:11;57.45;44.58;70.57;;
64545;Laerm;50936;51.660;5.616;2023-05-07T07:38:38;59.58;48.64;70.05;;
64545;Laerm;50936;51.660;5.616;2023-05-07T07:41:08;59.21;46.76;68.08;;
64545;Laerm;50936;51.660;5.616;2023-05-07T07:43:35;59.65;45.60;76.19;;
64545;Laerm;50936;51.660;5.616;2023-05-07T07:46:03;57.73;45.72;67.40;;
64545;Laerm;50936;51.660;5.616;2023-05-07T07:48:32;60.54;46.69;73.98;;
64545;Laerm;50936;51.660;5.616;2023-05-07T07:50:59;59.43;45.66;72.43;;
64545;Laerm;50936;51.660;5.616;2023-05-07T07:53:26;61.19;49.87;73.02;;
64545;Laerm;50936;51.660;5.616;2023-05-07T07:55:56;62.46;49.27;75.33;;
64545;Laerm;50936;51.660;5.616;2023-05-07T07:58:28;58.40;47.10;69.35;;
64545;Laerm;50936;51.660;5.616;2023-05-07T08:00:55;61.40;45.60;71.35;;
64545;Laerm;50936;51.660;5.616;2023-05-07T08:03:23;60.31;46.52;69.86;;
64545;Laerm;50936;51.660;5.616;2023-05-07T08:05:54;57.89;46.38;68.32;;
64545;Laerm;50936;51.660;5.616;2023-05-07T08:08:22;62.98;50.36;85.39;;
64545;Laerm;50936;51.660;5.616;2023-05-07T08:10:50;58.75;46.35;78.98;;
64545;Laerm;50936;51.660;5.616;2023-05-07T08:13:27;60.14;45.72;71.25;;
64545;Laerm;50936;51.660;5.616;2023-05-07T08:15:54;60.04;51.87;72.65;;
64545;Laerm;50936;51.660;5.616;2023-05-07T08:18:22;61.27;50.35;69.64;;
64545;Laerm;50936;51.660;5.616;2023-05-07T08:20:52;60.97;48.77;72.24;;
64545;Laerm;50936;51.660;5.616;2023-05-07T08:23:25;60.09;49.55;70.49;;
64545;Laerm;50936;51.660;5.616;2023-05-07T08:25:53;61.17;49.66;71.71;;
64545;Laerm;50936;51.660;5.616;2023-05-07T08:28:20;61.72;47.84;70.90;;
64545;Laerm;50936;51.660;5.616;2023-05-07T08:30:48;59.47;47.42;72.48;;
64545;Laerm;50936;51.660;5.616;2023-05-07T08:33:15;59.32;49.14;68.31;;
64545;Laerm;50936;51.660;5.616;2023-05-07T08:35:42;58.56;47.96;76.10;;
64545;Laerm;50936;51.660;5.616;2023-05-07T08:38:11;58.99;44.35;67.19;;
64545;Laerm;50936;51.660;5.616;2023-05-07T08:40:39;60.51;49.82;70.93;;
64545;Laerm;50936;51.660;5.616;2023-05-07T08:43:14;61.88;48.25;69.91;;
64545;Laerm;50936;51.660;5.616;2023-05-07T08:45:45;60.65;47.57;70.94;;
64545;Laerm;50936;51.660;5.616;2023-05-07T08:48:15;60.45;49.56;77.98;;
64545;Laerm;50936;51.660;5.616;2023-05-07T08:50:47;61.24;48.63;73.28;;
64545;Laerm;50936;51.660;5.616;2023-05-07T08:53:16;61.31;47.28;76.60;;
64545;Laerm;50936;51.660;5.616;2023-05-07T08:55:46;59.34;49.23;76.35;;
64545;Laerm;50936;51.660;5.616;2023-05-07T08:58:13;61.30;49.55;70.04;;
64545;Laerm;50936;51.660;5.616;2023-05-07T09:00:41;61.68;48.31;71.23;;
64545;Laerm;50936;51.660;5.616;2023-05-07T09:03:09;60.07;51.97;81.61;;
64545;Laerm;50936;51.660;5.616;2023-05-07T09:05:41;60.13;47.68;69.47;;
64545;Laerm;50936;51.660;5.616;2023-05-07T09:08:08;62.13;49.79;82.10;;
64545;Laerm;50936;51.660;5.616;2023-05-07T09:10:36;62.38;48.78;71.31;;
64545;Laerm;50936;51.660;5.616;2023-05-07T09:13:04;60.20;47.86;68.13;;
64545;Laerm;50936;51.660;5.616;2023-05-07T09:15:31;60.60;46.62;80.88;;
64545;Laerm;50936;51.660;5.616;2023-05-07T09:18:00;60.70;47.74;70.95;;
64545;Laerm;50936;51.660;5.616;2023-05-07T09:20:32;62.26;47.36;80.37;;
64545;Laerm;50936;51.660;5.616;2023-05-07T09:23:01;59.07;45.78;72.05;;
64545;Laerm;50936;51.660;5.616;2023-05-07T09:25:31;61.23;49.06;76.73;;
64545;Laerm;50936;51.660;5.616;2023-05-07T09:28:04;62.94;55.29;75.71;;
64545;Laerm;50936;51.660;5.616;2023-05-07T09:30:34;59.11;47.70;75.89;;
64545;Laerm;50936;51.660;5.616;2023-05-07T09:33:04;61.14;49.21;71.49;;
64545;Laerm;50936;51.660;5.616;2023-05-07T09:35:35;78.78;47.38;97.24;;
64545;Laerm;50936;51.660;5.616;2023-05-07T09:38:08;61.44;48.03;70.38;;
64545;Laerm;50936;51.660;5.616;2023-05-07T09:40:36;61.64;51.10;70.99;;
64545;Laerm;50936;51.660;5.616;2023-05-07T09:43:13;61.52;50.05;73.30;;
64545;Laerm;50936;51.660;5.616;2023-05-07T09:45:50;61.78;47.34;70.79;;
64545;Laerm;50936;51.660;5.616;2023-05-07T09:48:21;61.08;49.72;72.69;;
64545;Laerm;50936;51.660;5.616;2023-05-07T09:50:55;60.04;47.54;68.69;;
64545;Laerm;50936;51.660;5.616;2023-05-07T09:53:30;60.55;48.67;84.24;;
64545;Laerm;50936;51.660;5.616;2023-05-07T09:56:02;62.77;52.77;74.45;;
64545;Laerm;50936;51.660;5.616;2023-05-07T09:58:33;62.31;49.03;71.66;;
64545;Laerm;50936;51.660;5.616;2023-05-07T10:01:05;61.00;48.60;77.20;;
64545;Laerm;50936;51.660;5.616;2023-05-07T10:03:35;60.88;50.44;71.91;;
64545;Laerm;50936;51.660;5.616;2023-05-07T10:06:05;61.67;49.93;76.29;;
64545;Laerm;50936;51.660;5.616;2023-05-07T10:08:33;62.78;51.66;69.91;;
64545;Laerm;50936;51.660;5.616;2023-05-07T10:11:04;60.45;48.54;78.17;;
64545;Laerm;50936;51.660;5.616;2023-05-07T10:13:33;62.00;49.80;77.32;;
64545;Laerm;50936;51.660;5.616;2023-05-07T10:16:06;62.21;50.27;72.75;;
64545;Laerm;50936;51.660;5.616;2023-05-07T10:18:41;61.65;50.16;71.93;;
64545;Laerm;50936;51.660;5.616;2023-05-07T10:21:19;60.72;48.02;74.57;;
64545;Laerm;50936;51.660;5.616;2023-05-07T10:24:32;61.92;50.30;70.95;;
64545;Laerm;50936;51.660;5.616;2023-05-07T10:27:10;60.99;48.74;81.83;;
64545;Laerm;50936;51.660;5.616;2023-05-07T10:30:12;61.93;52.81;74.18;;
64545;Laerm;50936;51.660;5.616;2023-05-07T10:32:52;61.58;50.27;70.66;;
64545;Laerm;50936;51.660;5.616;2023-05-07T10:35:31;62.64;51.58;85.85;;
64545;Laerm;50936;51.660;5.616;2023-05-07T10:38:02;61.77;54.68;69.00;;
64545;Laerm;50936;51.660;5.616;2023-05-07T10:40:32;61.89;54.18;72.82;;
64545;Laerm;50936;51.660;5.616;2023-05-07T10:43:05;60.05;49.62;69.91;;
64545;Laerm;50936;51.660;5.616;2023-05-07T10:51:32;61.77;49.60;84.58;;
64545;Laerm;50936;51.660;5.616;2023-05-07T10:56:51;63.20;51.74;75.06;;
64545;Laerm;50936;51.660;5.616;2023-05-07T11:02:05;62.66;53.04;72.17;;
64545;Laerm;50936;51.660;5.616;2023-05-07T11:05:21;61.69;53.16;70.28;;
64545;Laerm;50936;51.660;5.616;2023-05-07T11:08:00;64.14;49.62;80.07;;
64545;Laerm;50936;51.660;5.616;2023-05-07T11:10:57;61.87;52.06;81.80;;
64545;Laerm;50936;51.660;5.616;2023-05-07T11:13:49;59.86;50.97;68.18;;
64545;Laerm;50936;51.660;5.616;2023-05-07T11:16:32;61.83;52.19;79.78;;
64545;Laerm;50936;51.660;5.616;2023-05-07T11:19:09;63.58;53.30;79.09;;
64545;Laerm;50936;51.660;5.616;2023-05-07T11:21:42;62.65;52.20;71.74;;
64545;Laerm;50936;51.660;5.616;2023-05-07T11:24:46;62.54;51.26;84.36;;
64545;Laerm;50936;51.660;5.616;2023-05-07T11:27:14;61.88;50.71;75.57;;
64545;Laerm;50936;51.660;5.616;2023-05-07T11:29:46;63.80;55.84;77.97;;
64545;Laerm;50936;51.660;5.616;2023-05-07T11:32:14;62.35;52.89;80.52;;
64545;Laerm;50936;51.660;5.616;2023-05-07T11:34:54;61.85;51.82;73.56;;
64545;Laerm;50936;51.660;5.616;2023-05-07T11:37:23;63.59;52.19;72.70;;
64545;Laerm;50936;51.660;5.616;2023-05-07T11:40:07;62.52;50.82;78.45;;
64545;Laerm;50936;51.660;5.616;2023-05-07T11:42:38;61.86;53.35;75.67;;
64545;Laerm;50936;51.660;5.616;2023-05-07T11:45:07;62.74;48.23;73.06;;
64545;Laerm;50936;51.660;5.616;2023-05-07T11:47:35;62.35;48.23;72.39;;
64545;Laerm;50936;51.660;5.616;2023-05-07T11:50:06;63.50;53.54;78.03;;
64545;Laerm;50936;51.660;5.616;2023-05-07T11:52:35;64.36;53.13;73.59;;
64545;Laerm;50936;51.660;5.616;2023-05-07T11:55:03;62.32;52.33;82.03;;
64545;Laerm;50936;51.660;5.616;2023-05-07T11:57:33;62.65;53.53;69.90;;
64545;Laerm;50936;51.660;5.616;2023-05-07T12:00:16;63.53;53.41;82.85;;
64545;Laerm;50936;51.660;5.616;2023-05-07T12:02:45;62.09;50.82;70.79;;
64545;Laerm;50936;51.660;5.616;2023-05-07T12:05:12;62.13;50.96;75.93;;
64545;Laerm;50936;51.660;5.616;2023-05-07T12:07:40;63.42;54.67;74.31;;
64545;Laerm;50936;51.660;5.616;2023-05-07T12:10:07;63.02;52.43;77.24;;
64545;Laerm;50936;51.660;5.616;2023-05-07T12:12:39;63.03;53.41;73.51;;
64545;Laerm;50936;51.660;5.616;2023-05-07T12:15:09;60.13;50.04;72.19;;
64545;Laerm;50936;51.660;5.616;2023-05-07T12:17:37;63.84;51.37;74.29;;
64545;Laerm;50936;51.660;5.616;2023-05-07T12:20:06;61.41;51.60;77.42;;
64545;Laerm;50936;51.660;5.616;2023-05-07T12:22:35;63.13;50.96;77.86;;
64545;Laerm;50936;51.660;5.616;2023-05-07T12:25:02;64.70;54.09;77.22;;
64545;Laerm;50936;51.660;5.616;2023-05-07T12:27:29;61.83;52.82;76.75;;
64545;Laerm;50936;51.660;5.616;2023-05-07T12:29:57;60.56;50.54;82.45;;
64545;Laerm;50936;51.660;5.616;2023-05-07T12:32:25;62.04;52.33;78.76;;
64545;Laerm;50936;51.660;5.616;2023-05-07T12:34:52;63.20;53.03;71.20;;
64545;Laerm;50936;51.660;5.616;2023-05-07T12:37:25;61.10;52.66;70.19;;
64545;Laerm;50936;51.660;5.616;2023-05-07T12:40:10;61.42;55.37;71.83;;
64545;Laerm;50936;51.660;5.616;2023-05-07T12:42:40;63.22;53.55;75.72;;
64545;Laerm;50936;51.660;5.616;2023-05-07T12:45:12;62.73;49.24;79.38;;
64545;Laerm;50936;51.660;5.616;2023-05-07T12:47:46;60.46;51.12;71.82;;
64545;Laerm;50936;51.660;5.616;2023-05-07T12:50:15;67.29;56.99;87.78;;
64545;Laerm;50936;51.660;5.616;2023-05-07T12:52:47;61.21;51.47;69.77;;
64545;Laerm;50936;51.660;5.616;2023-05-07T12:55:16;64.60;51.62;80.25;;
64545;Laerm;50936;51.660;5.616;2023-05-07T12:57:48;61.99;50.15;75.38;;
64545;Laerm;50936;51.660;5.616;2023-05-07T13:00:15;62.72;53.14;78.56;;
64545;Laerm;50936;51.660;5.616;2023-05-07T13:02:44;62.25;50.17;73.83;;
64545;Laerm;50936;51.660;5.616;2023-05-07T13:05:12;63.22;50.69;81.55;;
64545;Laerm;50936;51.660;5.616;2023-05-07T13:07:39;63.65;51.77;76.09;;
64545;Laerm;50936;51.660;5.616;2023-05-07T13:10:08;63.53;50.01;74.38;;
64545;Laerm;50936;51.660;5.616;2023-05-07T13:12:35;62.63;50.67;70.22;;
64545;Laerm;50936;51.660;5.616;2023-05-07T13:15:02;62.60;51.66;71.24;;
64545;Laerm;50936;51.660;5.616;2023-05-07T13:17:29;61.27;50.06;75.18;;
64545;Laerm;50936;51.660;5.616;2023-05-07T13:19:58;61.98;52.89;72.53;;
64545;Laerm;50936;51.660;5.616;2023-05-07T13:22:25;63.30;51.22;73.76;;
64545;Laerm;50936;51.660;5.616;2023-05-07T13:24:52;62.85;49.20;78.71;;
64545;Laerm;50936;51.660;5.616;2023-05-07T13:27:20;61.00;51.18;71.22;;
64545;Laerm;50936;51.660;5.616;2023-05-07T13:29:47;61.36;52.13;72.17;;
64545;Laerm;50936;51.660;5.616;2023-05-07T13:32:14;63.90;49.55;92.26;;
64545;Laerm;50936;51.660;5.616;2023-05-07T13:34:41;66.96;49.93;87.72;;
64545;Laerm;50936;51.660;5.616;2023-05-07T13:37:08;62.97;52.20;76.38;;
64545;Laerm;50936;51.660;5.616;2023-05-07T13:39:37;67.23;55.40;83.55;;
64545;Laerm;50936;51.660;5.616;2023-05-07T13:42:04;66.11;49.96;85.75;;
64545;Laerm;50936;51.660;5.616;2023-05-07T13:44:31;68.36;55.49;83.03;;
64545;Laerm;50936;51.660;5.616;2023-05-07T13:46:57;65.80;52.93;81.87;;
64545;Laerm;50936;51.660;5.616;2023-05-07T13:49:24;66.57;54.04;82.91;;
64545;Laerm;50936;51.660;5.616;2023-05-07T13:51:51;65.45;51.59;84.58;;
64545;Laerm;50936;51.660;5.616;2023-05-07T13:54:18;63.00;54.46;71.19;;
64545;Laerm;50936;51.660;5.616;2023-05-07T13:56:45;64.98;51.53;77.45;;
64545;Laerm;50936;51.660;5.616;2023-05-07T13:59:12;64.85;52.97;86.94;;
64545;Laerm;50936;51.660;5.616;2023-05-07T14:01:41;68.22;54.19;85.51;;
64545;Laerm;50936;51.660;5.616;2023-05-07T14:04:07;67.71;52.28;83.79;;
64545;Laerm;50936;51.660;5.616;2023-05-07T14:06:34;65.71;56.34;76.37;;
64545;Laerm;50936;51.660;5.616;2023-05-07T14:09:01;71.05;63.11;85.09;;